createdAt,value
2018-12-11T00:00:25.862Z,3.92
2018-12-11T00:02:56.126Z,3.90
2018-12-11T00:05:26.247Z,3.89
2018-12-11T00:07:56.902Z,3.89
2018-12-11T00:10:27.032Z,3.88
2018-12-11T00:12:57.184Z,3.87
2018-12-11T00:15:27.051Z,3.87
2018-12-11T00:17:57.082Z,3.88
2018-12-11T00:20:27.811Z,3.88
2018-12-11T00:22:58.277Z,3.60
2018-12-11T00:25:28.442Z,3.89
2018-12-11T00:27:58.430Z,3.90
2018-12-11T00:30:28.294Z,3.92
2018-12-11T00:32:58.630Z,3.94
2018-12-11T00:35:28.784Z,3.96
2018-12-11T00:37:58.638Z,3.72
2018-12-11T00:40:28.614Z,4.02
2018-12-11T00:42:58.721Z,4.06
2018-12-11T00:45:29.388Z,4.09
2018-12-11T00:47:59.490Z,4.11
2018-12-11T00:50:29.613Z,4.14
2018-12-11T00:52:59.567Z,4.15
2018-12-11T00:55:29.706Z,4.19
2018-12-11T00:58:00.419Z,4.20
2018-12-11T01:00:30.764Z,4.22
2018-12-11T01:03:00.972Z,4.08
2018-12-11T01:05:30.974Z,4.24
2018-12-11T01:08:01.392Z,4.25
2018-12-11T01:10:32.433Z,4.22
2018-12-11T01:13:02.549Z,4.26
2018-12-11T01:15:33.099Z,4.27
2018-12-11T01:18:03.391Z,4.30
2018-12-11T01:20:33.387Z,4.30
2018-12-11T01:23:03.150Z,4.30
2018-12-11T01:25:33.956Z,4.31
2018-12-11T01:28:04.070Z,4.30
2018-12-11T01:30:34.543Z,4.30
2018-12-11T01:33:04.090Z,4.30
2018-12-11T01:35:34.110Z,4.30
2018-12-11T01:38:04.764Z,4.31
2018-12-11T01:40:34.342Z,4.30
2018-12-11T01:43:04.298Z,4.27
2018-12-11T01:45:34.715Z,4.27
2018-12-11T01:48:04.844Z,4.30
2018-12-11T01:50:34.874Z,4.30
2018-12-11T01:53:05.323Z,4.29
2018-12-11T01:55:35.294Z,4.33
2018-12-11T01:58:05.522Z,4.33
2018-12-11T02:00:35.883Z,4.34
2018-12-11T02:03:05.987Z,4.18
2018-12-11T02:05:35.958Z,4.21
2018-12-11T02:08:05.889Z,4.36
2018-12-11T02:10:36.099Z,4.38
2018-12-11T02:13:06.254Z,4.38
2018-12-11T02:15:36.770Z,4.23
2018-12-11T02:18:06.704Z,4.38
2018-12-11T02:20:37.618Z,4.38
2018-12-11T02:23:21.127Z,4.37
2018-12-11T02:25:51.206Z,4.36
2018-12-11T02:28:21.454Z,4.19
2018-12-11T02:30:51.941Z,4.35
2018-12-11T02:33:22.026Z,4.34
2018-12-11T02:35:51.987Z,4.18
2018-12-11T02:38:22.451Z,4.34
2018-12-11T02:40:52.467Z,4.33
2018-12-11T02:43:22.586Z,4.06
2018-12-11T02:45:53.033Z,4.35
2018-12-11T02:48:23.844Z,4.36
2018-12-11T02:50:53.959Z,4.36
2018-12-11T02:53:24.021Z,4.38
2018-12-11T02:55:54.510Z,4.37
2018-12-11T02:58:25.330Z,4.39
2018-12-11T03:00:55.376Z,4.39
2018-12-11T03:03:25.754Z,4.39
2018-12-11T03:05:55.819Z,4.39
2018-12-11T03:08:25.836Z,4.39
2018-12-11T03:10:56.230Z,4.39
2018-12-11T03:13:26.968Z,4.40
2018-12-11T03:15:56.978Z,4.41
2018-12-11T03:18:27.433Z,4.42
2018-12-11T03:20:57.435Z,4.41
2018-12-11T03:23:27.434Z,4.40
2018-12-11T03:25:57.856Z,4.39
2018-12-11T03:28:27.878Z,4.38
2018-12-11T03:30:58.518Z,4.37
2018-12-11T03:33:28.925Z,4.38
2018-12-11T03:35:59.850Z,3.63
2018-12-11T03:38:30.030Z,4.39
2018-12-11T03:41:00.746Z,4.39
2018-12-11T03:43:31.572Z,4.44
2018-12-11T03:46:01.809Z,4.46
2018-12-11T03:48:32.409Z,4.45
2018-12-11T03:51:02.431Z,4.44
2018-12-11T03:53:32.650Z,4.42
2018-12-11T03:56:03.310Z,4.39
2018-12-11T03:58:33.426Z,4.39
2018-12-11T04:01:03.664Z,4.39
2018-12-11T04:03:33.652Z,4.39
2018-12-11T04:06:04.161Z,4.35
2018-12-11T04:08:35.014Z,3.20
2018-12-11T04:11:05.355Z,4.39
2018-12-11T04:13:35.006Z,4.40
2018-12-11T04:16:05.243Z,4.40
2018-12-11T04:18:34.847Z,4.41
2018-12-11T04:21:05.271Z,4.41
2018-12-11T04:23:35.524Z,4.17
2018-12-11T04:26:05.712Z,4.02
2018-12-11T04:28:36.254Z,4.44
2018-12-11T04:31:06.324Z,4.44
2018-12-11T04:33:36.618Z,4.43
2018-12-11T04:36:06.518Z,4.47
2018-12-11T04:38:36.728Z,4.47
2018-12-11T04:41:06.777Z,4.47
2018-12-11T04:43:37.231Z,4.46
2018-12-11T04:46:07.917Z,3.69
2018-12-11T04:51:12.837Z,4.48
2018-12-11T04:53:43.038Z,4.49
2018-12-11T04:56:13.135Z,4.50
2018-12-11T04:58:42.994Z,3.87
2018-12-11T05:01:13.533Z,4.50
2018-12-11T05:03:43.598Z,4.48
2018-12-11T05:06:13.300Z,4.46
2018-12-11T05:08:43.081Z,4.44
2018-12-11T05:14:02.650Z,4.00
2018-12-11T05:16:32.751Z,4.33
2018-12-11T05:19:03.008Z,4.30
2018-12-11T05:21:33.189Z,4.26
2018-12-11T05:24:03.230Z,4.13
2018-12-11T05:26:33.637Z,4.23
2018-12-11T05:29:03.741Z,4.24
2018-12-11T05:31:33.308Z,4.24
2018-12-11T05:34:03.392Z,4.26
2018-12-11T05:36:33.296Z,4.24
2018-12-11T05:39:03.369Z,3.82
2018-12-11T05:41:34.262Z,4.07
2018-12-11T05:44:04.409Z,4.23
2018-12-11T05:46:33.977Z,3.96
2018-12-11T05:49:03.864Z,4.20
2018-12-11T05:51:34.362Z,4.19
2018-12-11T05:54:04.090Z,4.18
2018-12-11T05:56:33.982Z,4.15
2018-12-11T05:59:04.404Z,3.88
2018-12-11T06:01:33.942Z,4.14
2018-12-11T06:04:03.514Z,4.14
2018-12-11T06:06:33.662Z,4.16
2018-12-11T06:09:03.912Z,2.67
2018-12-11T06:11:33.406Z,4.20
2018-12-11T06:14:03.290Z,4.22
2018-12-11T06:16:33.094Z,4.23
2018-12-11T06:21:37.266Z,4.23
2018-12-11T06:24:07.229Z,4.10
2018-12-11T06:26:36.739Z,4.24
2018-12-11T06:29:08.084Z,4.24
2018-12-11T06:31:37.596Z,4.25
2018-12-11T06:34:07.202Z,4.25
2018-12-11T06:36:37.034Z,3.47
2018-12-11T06:39:07.640Z,4.26
2018-12-11T06:41:37.267Z,2.75
2018-12-11T06:44:07.175Z,4.28
2018-12-11T06:46:36.839Z,4.26
2018-12-11T06:49:07.292Z,4.26
2018-12-11T06:51:37.334Z,4.25
2018-12-11T06:54:07.410Z,4.27
2018-12-11T06:56:37.022Z,4.27
2018-12-11T06:59:07.475Z,3.78
2018-12-11T07:01:37.426Z,4.23
2018-12-11T07:04:07.575Z,4.27
2018-12-11T07:06:37.809Z,4.26
2018-12-11T07:09:08.342Z,4.27
2018-12-11T07:11:37.874Z,4.26
2018-12-11T07:14:08.334Z,4.26
2018-12-11T07:16:37.805Z,4.28
2018-12-11T07:19:07.784Z,4.28
2018-12-11T07:21:38.382Z,4.29
2018-12-11T07:24:08.467Z,4.32
2018-12-11T07:26:38.090Z,4.33
2018-12-11T07:29:08.606Z,4.19
2018-12-11T07:31:38.607Z,4.36
2018-12-11T07:34:08.154Z,4.36
2018-12-11T07:36:38.173Z,4.37
2018-12-11T07:39:08.389Z,4.36
2018-12-11T07:41:38.430Z,4.36
2018-12-11T07:44:08.842Z,4.34
2018-12-11T07:46:38.934Z,4.35
2018-12-11T07:49:08.982Z,3.73
2018-12-11T07:51:38.826Z,4.40
2018-12-11T07:54:09.023Z,4.41
2018-12-11T07:56:38.551Z,4.41
2018-12-11T07:59:08.343Z,4.05
2018-12-11T08:01:37.863Z,4.41
2018-12-11T08:04:08.002Z,4.39
2018-12-11T08:06:37.818Z,4.37
2018-12-11T08:09:09.100Z,4.36
2018-12-11T08:11:38.966Z,4.37
2018-12-11T08:14:08.725Z,4.26
2018-12-11T08:16:38.751Z,4.43
2018-12-11T08:19:09.435Z,4.46
2018-12-11T08:21:39.348Z,4.24
2018-12-11T08:24:09.292Z,4.52
2018-12-11T08:26:39.375Z,4.54
2018-12-11T08:29:09.970Z,4.56
2018-12-11T08:31:40.052Z,4.52
2018-12-11T08:34:09.585Z,4.54
2018-12-11T08:36:39.372Z,4.55
2018-12-11T08:39:09.166Z,4.56
2018-12-11T08:41:38.695Z,4.58
2018-12-11T08:44:08.503Z,4.57
2018-12-11T08:46:38.124Z,4.57
2018-12-11T08:49:07.704Z,4.58
2018-12-11T08:51:37.535Z,4.58
2018-12-11T08:54:08.583Z,4.59
2018-12-11T08:56:38.787Z,4.50
2018-12-11T08:59:08.562Z,4.62
2018-12-11T09:01:38.110Z,4.63
2018-12-11T09:04:08.003Z,4.62
2018-12-11T09:06:37.919Z,4.62
2018-12-11T09:09:08.323Z,4.63
2018-12-11T09:11:37.835Z,4.16
2018-12-11T09:14:08.270Z,4.69
2018-12-11T09:16:37.818Z,4.70
2018-12-11T09:19:07.323Z,4.74
2018-12-11T09:21:37.246Z,4.80
2018-12-11T09:24:07.187Z,4.84
2018-12-11T09:26:37.250Z,4.87
2018-12-11T09:29:07.580Z,4.89
2018-12-11T09:31:37.586Z,4.90
2018-12-11T09:34:07.101Z,4.91
2018-12-11T09:36:36.858Z,4.92
2018-12-11T09:39:08.108Z,4.89
2018-12-11T09:41:37.914Z,4.89
2018-12-11T09:44:08.706Z,4.86
2018-12-11T09:46:38.934Z,4.85
2018-12-11T09:49:09.351Z,4.86
2018-12-11T09:51:39.349Z,4.72
2018-12-11T09:54:09.561Z,4.90
2018-12-11T09:56:39.772Z,4.91
2018-12-11T09:59:09.770Z,4.93
2018-12-11T10:01:39.795Z,5.01
2018-12-11T10:04:11.267Z,5.07
2018-12-11T10:06:40.883Z,5.12
2018-12-11T10:09:11.246Z,5.19
2018-12-11T10:11:41.434Z,5.27
2018-12-11T10:14:11.698Z,5.33
2018-12-11T10:16:41.510Z,5.29
2018-12-11T10:19:11.686Z,5.25
2018-12-11T10:21:41.946Z,5.19
2018-12-11T10:24:12.308Z,5.13
2018-12-11T10:26:43.176Z,5.08
2018-12-11T10:29:13.506Z,5.09
2018-12-11T10:31:43.030Z,5.14
2018-12-11T10:34:13.171Z,5.02
2018-12-11T10:36:43.119Z,5.19
2018-12-11T10:39:12.739Z,5.22
2018-12-11T10:41:42.330Z,5.28
2018-12-11T10:44:12.127Z,5.35
2018-12-11T10:46:42.270Z,5.39
2018-12-11T10:49:12.240Z,5.42
2018-12-11T10:51:43.334Z,5.44
2018-12-11T10:54:13.489Z,5.42
2018-12-11T10:56:43.010Z,5.39
2018-12-11T10:59:12.871Z,5.39
2018-12-11T11:01:47.710Z,5.34
2018-12-11T11:04:17.700Z,5.34
2018-12-11T11:06:47.293Z,5.38
2018-12-11T11:09:18.255Z,5.43
2018-12-11T11:11:48.630Z,5.48
2018-12-11T11:14:18.176Z,5.52
2018-12-11T11:16:48.354Z,5.51
2018-12-11T11:19:18.330Z,5.54
2018-12-11T11:21:48.814Z,5.56
2018-12-11T11:24:18.987Z,5.59
2018-12-11T11:26:48.802Z,5.58
2018-12-11T11:29:18.313Z,5.60
2018-12-11T11:31:47.832Z,5.60
2018-12-11T11:34:18.222Z,5.63
2018-12-11T11:36:48.461Z,5.61
2018-12-11T11:39:18.462Z,5.59
2018-12-11T11:41:48.234Z,5.56
2018-12-11T11:44:19.102Z,5.55
2018-12-11T11:46:49.190Z,5.53
2018-12-11T11:49:19.458Z,5.51
2018-12-11T11:51:48.978Z,5.48
2018-12-11T11:54:19.580Z,5.45
2018-12-11T11:56:49.983Z,5.43
2018-12-11T11:59:19.507Z,5.42
2018-12-11T12:05:10.292Z,5.41
2018-12-11T12:07:39.861Z,5.42
2018-12-11T12:10:11.606Z,5.50
2018-12-11T12:12:41.872Z,5.56
2018-12-11T12:15:12.122Z,5.62
2018-12-11T12:17:41.601Z,5.70
2018-12-11T12:20:11.573Z,5.72
2018-12-11T12:22:41.058Z,5.69
2018-12-11T12:25:10.547Z,5.63
2018-12-11T12:27:40.365Z,5.64
2018-12-11T12:30:10.371Z,5.62
2018-12-11T12:32:39.973Z,5.63
2018-12-11T12:35:09.760Z,5.63
2018-12-11T12:37:39.285Z,5.64
2018-12-11T12:40:08.806Z,5.62
2018-12-11T12:42:38.625Z,5.34
2018-12-11T12:45:08.186Z,5.59
2018-12-11T12:47:37.653Z,5.34
2018-12-11T12:50:07.535Z,5.27
2018-12-11T12:52:37.018Z,5.48
2018-12-11T12:55:06.622Z,5.48
2018-12-11T12:57:36.585Z,5.44
2018-12-11T13:00:07.932Z,5.44
2018-12-11T13:02:37.726Z,5.47
2018-12-11T13:05:07.569Z,5.47
2018-12-11T13:07:37.097Z,5.48
2018-12-11T13:10:07.247Z,5.48
2018-12-11T13:12:36.982Z,5.50
2018-12-11T13:15:08.741Z,5.23
2018-12-11T13:17:38.594Z,5.47
2018-12-11T13:20:09.793Z,5.49
2018-12-11T13:22:39.681Z,5.52
2018-12-11T13:25:09.821Z,5.52
2018-12-11T13:27:39.385Z,5.53
2018-12-11T13:30:09.553Z,5.52
2018-12-11T13:32:39.112Z,5.52
2018-12-11T13:35:09.133Z,5.53
2018-12-11T13:37:39.368Z,5.27
2018-12-11T13:40:09.032Z,5.56
2018-12-11T13:42:38.669Z,5.32
2018-12-11T13:45:08.725Z,5.57
2018-12-11T13:47:38.218Z,5.56
2018-12-11T13:50:07.764Z,5.53
2018-12-11T13:52:38.382Z,5.52
2018-12-11T13:55:08.070Z,5.51
2018-12-11T13:57:37.638Z,5.51
2018-12-11T14:00:07.810Z,5.27
2018-12-11T14:02:37.393Z,5.49
2018-12-11T14:05:07.145Z,5.48
2018-12-11T14:07:37.088Z,5.48
2018-12-11T14:10:07.096Z,5.47
2018-12-11T14:12:36.687Z,5.45
2018-12-11T14:15:08.038Z,5.44
2018-12-11T14:17:39.091Z,5.42
2018-12-11T14:20:08.864Z,5.41
2018-12-11T14:22:38.770Z,5.39
2018-12-11T14:25:08.675Z,4.78
2018-12-11T14:27:38.224Z,5.13
2018-12-11T14:30:11.200Z,5.12
2018-12-11T14:32:39.671Z,5.36
2018-12-11T14:35:09.462Z,5.37
2018-12-11T14:37:39.269Z,5.36
2018-12-11T14:40:09.561Z,5.34
2018-12-11T14:42:39.101Z,5.32
2018-12-11T14:45:09.478Z,4.83
2018-12-11T14:47:39.095Z,5.32
2018-12-11T14:50:09.673Z,5.33
2018-12-11T14:52:39.494Z,5.33
2018-12-11T14:55:09.493Z,5.32
2018-12-11T14:57:39.066Z,5.30
2018-12-11T15:00:10.441Z,5.31
2018-12-11T15:02:40.169Z,5.32
2018-12-11T15:05:09.767Z,5.31
2018-12-11T15:07:39.840Z,4.93
2018-12-11T15:10:11.871Z,5.28
2018-12-11T15:12:41.532Z,5.27
2018-12-11T15:15:11.898Z,5.14
2018-12-11T15:17:41.978Z,5.06
2018-12-11T15:20:11.715Z,5.26
2018-12-11T15:22:41.854Z,4.78
2018-12-11T15:25:11.345Z,5.14
2018-12-11T15:27:40.841Z,4.63
2018-12-11T15:30:11.397Z,5.26
2018-12-11T15:32:40.891Z,5.26
2018-12-11T15:35:10.470Z,5.26
2018-12-11T15:37:40.241Z,5.22
2018-12-11T15:40:10.491Z,5.23
2018-12-11T15:42:40.046Z,5.21
2018-12-11T15:45:09.950Z,5.20
2018-12-11T15:47:39.499Z,5.19
2018-12-11T15:50:09.437Z,5.16
2018-12-11T15:52:39.305Z,4.92
2018-12-11T15:55:08.906Z,5.16
2018-12-11T15:57:38.580Z,5.15
2018-12-11T16:00:10.832Z,5.02
2018-12-11T16:02:40.539Z,5.15
2018-12-11T16:05:10.559Z,5.15
2018-12-11T16:07:40.485Z,4.77
2018-12-11T16:10:10.402Z,5.14
2018-12-11T16:12:39.915Z,4.89
2018-12-11T16:15:10.070Z,5.13
2018-12-11T16:17:39.613Z,5.13
2018-12-11T16:20:09.726Z,5.13
2018-12-11T16:22:39.699Z,5.14
2018-12-11T16:25:09.618Z,5.14
2018-12-11T16:27:40.674Z,5.15
2018-12-11T16:30:10.582Z,5.15
2018-12-11T16:32:40.234Z,5.00
2018-12-11T16:35:09.786Z,4.86
2018-12-11T16:37:39.797Z,5.09
2018-12-11T16:40:09.379Z,5.09
2018-12-11T16:42:38.958Z,5.08
2018-12-11T16:45:09.110Z,5.03
2018-12-11T16:47:38.964Z,5.04
2018-12-11T16:50:08.709Z,5.02
2018-12-11T16:52:38.622Z,5.01
2018-12-11T16:55:08.290Z,5.00
2018-12-11T16:57:37.905Z,5.00
2018-12-11T17:00:08.858Z,5.01
2018-12-11T17:02:38.660Z,5.01
2018-12-11T17:05:08.266Z,5.01
2018-12-11T17:07:38.374Z,5.02
2018-12-11T17:10:08.621Z,5.00
2018-12-11T17:12:38.377Z,4.99
2018-12-11T17:15:14.205Z,4.89
2018-12-11T17:17:43.918Z,5.00
2018-12-11T17:20:14.569Z,5.01
2018-12-11T17:22:44.090Z,5.01
2018-12-11T17:25:13.630Z,5.01
2018-12-11T17:27:43.570Z,5.02
2018-12-11T17:30:13.280Z,5.03
2018-12-11T17:32:43.514Z,5.01
2018-12-11T17:35:13.634Z,5.02
2018-12-11T17:37:43.441Z,5.03
2018-12-11T17:40:13.049Z,4.69
2018-12-11T17:45:21.566Z,5.02
2018-12-11T17:47:51.350Z,5.01
2018-12-11T17:50:20.898Z,5.02
2018-12-11T17:52:50.591Z,5.00
2018-12-11T17:55:20.406Z,5.00
2018-12-11T17:57:50.061Z,4.88
2018-12-11T18:00:19.649Z,5.01
2018-12-11T18:02:49.810Z,5.00
2018-12-11T18:05:19.401Z,5.01
2018-12-11T18:07:49.082Z,5.01
2018-12-11T18:10:18.892Z,5.01
2018-12-11T18:12:48.427Z,5.00
2018-12-11T18:15:18.062Z,5.01
2018-12-11T18:17:47.970Z,5.01
2018-12-11T18:20:17.515Z,5.01
2018-12-11T18:22:47.085Z,5.02
2018-12-11T18:25:17.529Z,4.89
2018-12-11T18:27:47.512Z,5.01
2018-12-11T18:30:17.806Z,5.00
2018-12-11T18:32:47.660Z,4.88
2018-12-11T18:35:18.105Z,5.00
2018-12-11T18:37:47.574Z,4.99
2018-12-11T18:40:17.659Z,4.98
2018-12-11T18:42:47.234Z,4.84
2018-12-11T18:45:16.922Z,4.96
2018-12-11T18:47:49.956Z,4.94
2018-12-11T18:50:21.317Z,4.94
2018-12-11T18:52:46.261Z,4.94
2018-12-11T18:55:16.066Z,4.94
2018-12-11T18:57:46.825Z,4.94
2018-12-11T19:00:16.599Z,4.92
2018-12-11T19:02:46.886Z,4.95
2018-12-11T19:05:16.651Z,4.94
2018-12-11T19:07:46.447Z,4.10
2018-12-11T19:10:16.730Z,4.94
2018-12-11T19:12:46.322Z,4.94
2018-12-11T19:15:15.826Z,4.92
2018-12-11T19:17:45.691Z,4.91
2018-12-11T19:20:15.286Z,4.90
2018-12-11T19:22:44.841Z,4.90
2018-12-11T19:25:18.803Z,4.90
2018-12-11T19:27:48.810Z,4.46
2018-12-11T19:30:18.997Z,4.87
2018-12-11T19:32:48.675Z,4.85
2018-12-11T19:35:18.391Z,4.83
2018-12-11T19:37:48.953Z,4.79
2018-12-11T19:40:18.450Z,4.82
2018-12-11T19:42:48.537Z,4.82
2018-12-11T19:45:18.545Z,4.83
2018-12-11T19:47:48.098Z,4.82
2018-12-11T19:50:17.734Z,4.82
2018-12-11T19:52:47.656Z,4.81
2018-12-11T19:55:18.689Z,4.80
2018-12-11T19:57:49.831Z,4.80
2018-12-11T20:00:20.021Z,4.80
2018-12-11T20:02:51.635Z,4.79
2018-12-11T20:05:21.258Z,4.77
2018-12-11T20:07:51.530Z,4.39
2018-12-11T20:10:25.598Z,4.75
2018-12-11T20:12:55.232Z,4.35
2018-12-11T20:15:25.727Z,4.68
2018-12-11T20:17:55.775Z,4.69
2018-12-11T20:20:28.139Z,4.65
2018-12-11T20:22:57.773Z,4.65
2018-12-11T20:25:28.318Z,4.64
2018-12-11T20:27:57.854Z,4.65
2018-12-11T20:30:27.362Z,4.52
2018-12-11T20:32:57.904Z,4.64
2018-12-11T20:35:28.057Z,4.65
2018-12-11T20:37:57.982Z,4.63
2018-12-11T20:40:27.879Z,4.62
2018-12-11T20:42:58.114Z,4.60
2018-12-11T20:45:27.606Z,4.64
2018-12-11T20:47:58.103Z,4.65
2018-12-11T20:50:27.745Z,4.64
2018-12-11T20:52:57.285Z,4.65
2018-12-11T20:55:27.207Z,4.64
2018-12-11T20:57:56.694Z,4.64
2018-12-11T21:00:27.003Z,4.62
2018-12-11T21:02:56.900Z,4.62
2018-12-11T21:05:26.986Z,4.59
2018-12-11T21:07:56.562Z,4.62
2018-12-11T21:10:26.406Z,4.60
2018-12-11T21:12:56.686Z,4.60
2018-12-11T21:15:26.282Z,4.33
2018-12-11T21:17:56.343Z,4.58
2018-12-11T21:20:26.508Z,4.57
2018-12-11T21:22:56.070Z,4.57
2018-12-11T21:25:25.877Z,4.56
2018-12-11T21:27:55.393Z,4.55
2018-12-11T21:30:24.879Z,4.57
2018-12-11T21:32:54.764Z,4.05
2018-12-11T21:35:24.239Z,4.56
2018-12-11T21:37:53.719Z,4.56
2018-12-11T21:40:23.952Z,4.56
2018-12-11T21:42:54.058Z,4.56
2018-12-11T21:45:24.056Z,4.55
2018-12-11T21:47:54.309Z,4.40
2018-12-11T21:50:24.446Z,4.56
2018-12-11T21:52:53.977Z,4.55
2018-12-11T21:55:28.623Z,4.55
2018-12-11T21:57:58.702Z,4.25
2018-12-11T22:00:28.338Z,4.52
2018-12-11T22:02:58.208Z,4.50
2018-12-11T22:05:27.717Z,4.49
2018-12-11T22:07:57.733Z,4.46
2018-12-11T22:10:27.566Z,4.35
2018-12-11T22:12:57.042Z,4.48
2018-12-11T22:15:27.853Z,4.47
2018-12-11T22:17:58.123Z,4.46
2018-12-11T22:20:27.716Z,4.48
2018-12-11T22:22:57.219Z,4.49
2018-12-11T22:25:27.745Z,4.46
2018-12-11T22:27:57.313Z,4.09
2018-12-11T22:30:26.812Z,4.46
2018-12-11T22:32:56.757Z,4.45
2018-12-11T22:35:26.726Z,4.45
2018-12-11T22:37:56.777Z,4.44
2018-12-11T22:40:27.262Z,4.44
2018-12-11T22:42:57.489Z,4.44
2018-12-11T22:45:27.483Z,4.41
2018-12-11T22:47:58.022Z,4.41
2018-12-11T22:50:27.558Z,4.40
2018-12-11T22:52:57.681Z,4.40
2018-12-11T22:55:28.276Z,4.39
2018-12-11T22:57:57.783Z,4.37
2018-12-11T23:00:27.305Z,4.36
2018-12-11T23:02:57.067Z,3.82
2018-12-11T23:05:27.633Z,4.34
2018-12-11T23:07:57.188Z,4.34
2018-12-11T23:10:27.019Z,4.34
2018-12-11T23:12:57.118Z,4.34
2018-12-11T23:15:27.398Z,4.33
2018-12-11T23:17:57.218Z,4.08
2018-12-11T23:20:26.651Z,4.34
2018-12-11T23:22:56.228Z,4.33
2018-12-11T23:25:26.658Z,4.33
2018-12-11T23:27:56.885Z,4.34
2018-12-11T23:30:25.962Z,4.34
2018-12-11T23:32:56.246Z,4.33
2018-12-11T23:35:26.509Z,4.32
2018-12-11T23:37:56.061Z,4.23
2018-12-11T23:40:26.446Z,4.30
2018-12-11T23:42:55.990Z,4.33
2018-12-11T23:45:26.264Z,4.33
2018-12-11T23:47:56.287Z,4.33
2018-12-11T23:50:26.237Z,4.32
2018-12-11T23:52:56.571Z,4.31
2018-12-11T23:55:26.885Z,4.30
2018-12-11T23:57:56.420Z,4.30
